Terminal Aerodrome Forecast
Issued by NWS

Home | Current Version | Previous Version | Text Only | Print | Product List | Glossary On
Versions: 1 2 3 4 5 6 7 8 9 10 11 12 13 14
000
FTAK31 PAFA 221735
TAFASC
TAF
PASC 221735Z 2218/2318 05015KT P6SM BKN010 OVC035
     FM222100 06018G25KT P6SM VCSH SCT008 OVC015
     FM230400 06017G23KT 4SM -SHRA BR BKN008 OVC015
     FM231400 05014G20KT 4SM BR VCSH SCT008 OVC015=

USA.gov is the U.S. government's official web portal to all federal, state and local government web resources and services.